Résultats de la compétition "championnat de ligue LNPCCO moyenne distance" du 31-05-2009 organisée par le club 6208
     
  Télécharger le fichier CSV.  
     
     

 Circuit "Circuit A"

Licence Nom Prénom Temps CN
précédent
Score sur
la course
Différence
17574LEQUINTRémi0:38:3357926261+469
722FLICOTEAUXRaphael0:41:0161615885-276
7049LEROYSimon0:41:2176115837-1774
20178TSIRTSIKOLOUArnaud0:42:2039655702+1737
9629SMIRNOVKonstantin0:44:0257565482-274
6999MAHIEUPierre0:45:0360795358-721
16954BERNACJordan0:46:2041835210+1027
16397CLAIRETRichard0:46:3036425191+1549
16280DANELJerome0:47:2054955100-395
18651DROGOULMatthieu0:47:4639035053+1150
1947POULAINJoel0:49:2753124881-431
7137DEBERGUEDavid0:50:03N/A4823N/A
2822DICKBURTMichel0:50:0354024823-579
12468RADONDYDaniel0:50:2260844792-1292
16233DEPRETThomas0:50:4750084753-255
16563DUMONTJ-Luc0:50:48N/A4752N/A
20405CHAPUSStanislas0:51:04N/A4727N/A
15831GOLECCharly0:51:1328364713+1877
8081LEGEREPascal0:51:2752364691-545
5421LOTERIEJ-Francois0:53:4857044487-1217
20550REGNIEZErwan0:56:03N/A4306N/A
18786SCHIMPFLaurent0:59:5139084033+125
18355BRUNOOlivier0:59:5640554027-28
16399GENCEEric1:00:3740353982-53
18662NEUVILLEChristian1:01:2636983929+231
17572TESSIERPatrick1:01:3735213917+396
18874ROBARTSébastien1:08:41N/A3514N/A
19699GOBERTAlain1:10:5533483404+56
13838BOUTINDominique1:18:4934683063-405
20676DELINSELLEAlexis1:21:33N/A2960N/A
21294DELETREMaxime1:23:31N/A2890N/A
18789BAERTEtienne1:30:5328182656-162
20440LECENDREOlivier1:32:40N/A2605N/A
9164TORZDidier1:36:0532622512-750
7215LEROYJacquesN/A43890-4389
17664DRAMEZFredericN/A20040-2004
6998FONTAINEThibaultN/AN/A0N/A
18300GOURLAINVincentN/A31070-3107

  Indice de confiance du circuit (moyenne des différences entre CN et score sur la course des 3 à 10 premiers) : 521




 Circuit "Circuit B"

Licence Nom Prénom Temps CN
précédent
Score sur
la course
Différence
20648MALAKMaxence0:33:0521095764+3655
14665SZYMANOWSKIValentin0:35:1434175412+1995
20040GOUVERNEURAntoine0:40:0642184755+537
7200SZYMANOWSKIFabrice0:40:0646254755+130
11077MAUCONDUITArnaud0:42:2546434496-147
19240MAZYFrançois-rémi0:45:2137974205+408
9171POULAINYannick0:45:4840454163+118
8445FINASCeline0:46:3549404093-847
15795DESRUMAUXCeline0:46:4244324083-349
14227DESRUMAUXMarie0:47:0448064051-755
16143WANTIERLoic0:48:2437973940+143
9426LERICHECamille0:49:1939753867-108
5597EJSMONTJean0:50:1144563800-656
20803LAHOUSSENathan0:52:30N/A3632N/A
20214PECQUEURFlorian0:53:5044673542-925
6995DECARPIGNYGwladys0:54:1240523518-534
10766ROBYNLaurence0:55:4538533420-433
15796CHARLETEtienne0:56:10N/A3395N/A
20677ANSCUTTEValentin0:57:25N/A3321N/A
7044LOTERIEMurielle0:59:3140453204-841
8814BENOITEric1:02:5726793029+350
13270ROUXCatherine1:05:3336052909-696
16961PARMENTFabien1:06:0526102886+276
17899DEPERSINIsabelle1:06:4429642857-107
20840DUBUISSONRony1:07:51N/A2810N/A
15247SANCHEZMarlene1:09:4535652734-831
20629KIRILOVAurélie1:10:39N/A2699N/A
7216LEROYOdile1:16:4231932486-707
13272CZERNIAKSidonie1:18:2720922431+339
1948POULAINOdile1:21:4926952331-364
10081TORZ-DRUONMagali1:24:1527182263-455
19155GOURLAINMarguerite-marie1:31:2820202085+65
20301TREULIERLaurent1:31:55N/A2075N/A
21271DELANNOYAurore1:37:30N/A1956N/A
20425PECQUEURSylvie1:40:4215571894+337
18805CAUWETSamuel1:42:09N/A1867N/A
15894LUDEWIG-JAMESCarol2:29:4323831274-1109

  Indice de confiance du circuit (moyenne des différences entre CN et score sur la course des 3 à 10 premiers) : 426




 Circuit "Circuit C"

Licence Nom Prénom Temps CN
précédent
Score sur
la course
Différence
12963CASTIERPhilippe0:33:0841754636+461
19411DUBOISXavier0:37:0641254140+15
14911LAMINETTEPauline0:41:4936833673-10
7045LOTERIELaurine0:43:0738463563-283
18312GERBEAUXNathanaëlle0:43:4636063510-96
17577FACHAUXAngélique0:44:0436363486-150
20177WATRELOTJulien0:46:3517063297+1591
19136TANTARTDelphine0:52:0436992950-749
15582CIRAUDOAndrea0:52:2134592934-525
9427LERICHEClotilde0:52:4446712913-1758
20213DECOOPMANClémentine0:53:5520972849+752
20439GOLECZoé0:59:34N/A2579N/A
21224SIXThibaut1:13:39N/A2086N/A
21418ASTOLFIJudith1:13:54N/A2079N/A
20215SIXPauline1:15:4616552027+372
20952LOUCHARTVictor1:24:36N/A1816N/A
20302TREULIEREmmanuelle2:10:13N/A1180N/A
21461PRINSSandrineN/AN/A0N/A

  Indice de confiance du circuit (moyenne des différences entre CN et score sur la course des 3 à 10 premiers) : 626




 Circuit "Circuit D"

Licence Nom Prénom Temps CN
précédent
Score sur
la course
Différence
20604SAUVAGEAnna0:50:33N/A3417N/A
20572GUILMAINMelanie0:55:05N/A3135N/A
20200LEPERQUEOphelie0:59:1830172912-105
20224SELINGUECécile1:10:1318622460+598
9172POULAINGael1:21:1927732124-649
18299GOURLAINMathilde1:22:5218792084+205
13279PRUVOSTVeronique1:59:5228891441-1448
14164EJSMONTMartineN/A15610-1561
21323VANOVERBERGHECamilleN/AN/A0N/A
21329MAZYPierre-louisN/AN/A0N/A
20199VIEILLEMarineN/AN/A0N/A
21105BOULANGERSabrinaN/AN/A0N/A

  Indice de confiance du circuit (moyenne des différences entre CN et score sur la course des 3 à 10 premiers) : 751




 Circuit "Circuit Jalonné"

Licence Nom Prénom Temps CN
précédent
Score sur
la course
Différence
21419ASTOLFIAlban0:14:57N/A1988N/A
21420ASTOLFIRomain0:16:42N/A1780N/A
20303TREULIERHélène0:17:43N/A1678N/A
21270MAUCONDUITAlexia0:28:14N/A1053N/A
21269MAUCONDUITMathéo0:28:55N/A1028N/A
20305TREULIERCarolineN/AN/A0N/A
20304TREULIERAurélieN/AN/A0N/A

  Indice de confiance du circuit (moyenne des différences entre CN et score sur la course des 3 à 10 premiers) : 343






 Retour